sensor_id;sensor_type;location;lat;lon;timestamp;P1;durP1;ratioP1;P2;durP2;ratioP2
68076;SDS011;54866;53.458;14.540;2022-10-16T00:02:06;7.80;;;6.20;;
68076;SDS011;54866;53.458;14.540;2022-10-16T00:04:36;8.30;;;6.50;;
68076;SDS011;54866;53.458;14.540;2022-10-16T00:07:06;7.70;;;6.70;;
68076;SDS011;54866;53.458;14.540;2022-10-16T00:09:36;7.60;;;6.60;;
68076;SDS011;54866;53.458;14.540;2022-10-16T00:12:05;7.10;;;6.40;;
68076;SDS011;54866;53.458;14.540;2022-10-16T00:14:35;8.20;;;6.80;;
68076;SDS011;54866;53.458;14.540;2022-10-16T00:17:07;6.10;;;5.40;;
68076;SDS011;54866;53.458;14.540;2022-10-16T00:19:37;6.80;;;6.10;;
68076;SDS011;54866;53.458;14.540;2022-10-16T00:22:06;6.40;;;5.40;;
68076;SDS011;54866;53.458;14.540;2022-10-16T00:24:37;7.70;;;6.90;;
68076;SDS011;54866;53.458;14.540;2022-10-16T00:27:06;6.30;;;5.60;;
68076;SDS011;54866;53.458;14.540;2022-10-16T00:29:36;6.30;;;5.70;;
68076;SDS011;54866;53.458;14.540;2022-10-16T00:32:06;8.40;;;6.30;;
68076;SDS011;54866;53.458;14.540;2022-10-16T00:34:36;7.00;;;6.30;;
68076;SDS011;54866;53.458;14.540;2022-10-16T00:37:05;6.80;;;6.10;;
68076;SDS011;54866;53.458;14.540;2022-10-16T00:39:35;7.40;;;5.90;;
68076;SDS011;54866;53.458;14.540;2022-10-16T00:42:05;7.60;;;6.20;;
68076;SDS011;54866;53.458;14.540;2022-10-16T00:44:44;6.20;;;5.60;;
68076;SDS011;54866;53.458;14.540;2022-10-16T00:47:21;6.70;;;5.60;;
68076;SDS011;54866;53.458;14.540;2022-10-16T00:49:58;6.40;;;5.40;;
68076;SDS011;54866;53.458;14.540;2022-10-16T00:52:34;7.30;;;5.70;;
68076;SDS011;54866;53.458;14.540;2022-10-16T00:55:05;6.00;;;5.40;;
68076;SDS011;54866;53.458;14.540;2022-10-16T00:57:37;6.90;;;5.80;;
68076;SDS011;54866;53.458;14.540;2022-10-16T01:00:08;7.20;;;6.40;;
68076;SDS011;54866;53.458;14.540;2022-10-16T01:02:51;5.70;;;5.10;;
68076;SDS011;54866;53.458;14.540;2022-10-16T01:05:22;6.80;;;5.60;;
68076;SDS011;54866;53.458;14.540;2022-10-16T01:07:56;5.50;;;5.00;;
68076;SDS011;54866;53.458;14.540;2022-10-16T01:10:37;6.60;;;5.70;;
68076;SDS011;54866;53.458;14.540;2022-10-16T01:13:11;5.50;;;4.80;;
68076;SDS011;54866;53.458;14.540;2022-10-16T01:15:47;5.60;;;4.80;;
68076;SDS011;54866;53.458;14.540;2022-10-16T01:18:23;6.10;;;5.50;;
68076;SDS011;54866;53.458;14.540;2022-10-16T01:20:59;5.10;;;4.60;;
68076;SDS011;54866;53.458;14.540;2022-10-16T01:23:38;6.20;;;5.00;;
68076;SDS011;54866;53.458;14.540;2022-10-16T01:26:20;5.80;;;5.20;;
68076;SDS011;54866;53.458;14.540;2022-10-16T01:29:01;5.80;;;5.20;;
68076;SDS011;54866;53.458;14.540;2022-10-16T01:31:37;6.00;;;4.80;;
68076;SDS011;54866;53.458;14.540;2022-10-16T01:34:12;6.00;;;5.40;;
68076;SDS011;54866;53.458;14.540;2022-10-16T01:36:47;5.90;;;5.20;;
68076;SDS011;54866;53.458;14.540;2022-10-16T01:39:22;5.70;;;4.70;;
68076;SDS011;54866;53.458;14.540;2022-10-16T01:41:58;5.20;;;4.70;;
68076;SDS011;54866;53.458;14.540;2022-10-16T01:44:33;5.70;;;5.10;;
68076;SDS011;54866;53.458;14.540;2022-10-16T01:47:04;5.10;;;4.70;;
68076;SDS011;54866;53.458;14.540;2022-10-16T01:49:37;5.80;;;5.10;;
68076;SDS011;54866;53.458;14.540;2022-10-16T01:52:09;6.60;;;4.40;;
68076;SDS011;54866;53.458;14.540;2022-10-16T01:54:42;5.20;;;4.70;;
68076;SDS011;54866;53.458;14.540;2022-10-16T01:57:14;5.60;;;4.80;;
68076;SDS011;54866;53.458;14.540;2022-10-16T01:59:47;4.80;;;4.30;;
68076;SDS011;54866;53.458;14.540;2022-10-16T02:04:51;4.90;;;4.40;;
68076;SDS011;54866;53.458;14.540;2022-10-16T02:07:25;6.50;;;3.80;;
68076;SDS011;54866;53.458;14.540;2022-10-16T02:09:55;5.20;;;4.50;;
68076;SDS011;54866;53.458;14.540;2022-10-16T02:12:26;5.80;;;4.90;;
68076;SDS011;54866;53.458;14.540;2022-10-16T02:14:59;7.10;;;4.80;;
68076;SDS011;54866;53.458;14.540;2022-10-16T02:17:29;5.30;;;4.80;;
68076;SDS011;54866;53.458;14.540;2022-10-16T02:19:58;5.00;;;4.40;;
68076;SDS011;54866;53.458;14.540;2022-10-16T02:22:30;6.40;;;4.40;;
68076;SDS011;54866;53.458;14.540;2022-10-16T02:25:05;5.90;;;4.80;;
68076;SDS011;54866;53.458;14.540;2022-10-16T02:30:09;4.10;;;3.70;;
68076;SDS011;54866;53.458;14.540;2022-10-16T02:32:42;4.60;;;4.00;;
68076;SDS011;54866;53.458;14.540;2022-10-16T02:37:45;5.30;;;4.60;;
68076;SDS011;54866;53.458;14.540;2022-10-16T02:40:17;6.00;;;4.70;;
68076;SDS011;54866;53.458;14.540;2022-10-16T02:42:49;4.80;;;4.20;;
68076;SDS011;54866;53.458;14.540;2022-10-16T02:45:20;6.90;;;5.20;;
68076;SDS011;54866;53.458;14.540;2022-10-16T02:47:51;4.50;;;4.10;;
68076;SDS011;54866;53.458;14.540;2022-10-16T02:50:21;4.90;;;4.40;;
68076;SDS011;54866;53.458;14.540;2022-10-16T02:52:51;4.40;;;3.90;;
68076;SDS011;54866;53.458;14.540;2022-10-16T02:55:21;4.40;;;3.80;;
68076;SDS011;54866;53.458;14.540;2022-10-16T02:57:51;5.60;;;4.20;;
68076;SDS011;54866;53.458;14.540;2022-10-16T03:00:21;5.00;;;4.50;;
68076;SDS011;54866;53.458;14.540;2022-10-16T03:02:51;4.70;;;4.20;;
68076;SDS011;54866;53.458;14.540;2022-10-16T03:05:21;5.00;;;4.40;;
68076;SDS011;54866;53.458;14.540;2022-10-16T03:07:51;5.30;;;4.50;;
68076;SDS011;54866;53.458;14.540;2022-10-16T03:10:20;5.10;;;4.00;;
68076;SDS011;54866;53.458;14.540;2022-10-16T03:12:50;4.90;;;3.90;;
68076;SDS011;54866;53.458;14.540;2022-10-16T03:15:20;5.20;;;4.20;;
68076;SDS011;54866;53.458;14.540;2022-10-16T03:17:50;4.80;;;4.30;;
68076;SDS011;54866;53.458;14.540;2022-10-16T03:20:20;4.50;;;4.10;;
68076;SDS011;54866;53.458;14.540;2022-10-16T03:22:50;5.50;;;4.50;;
68076;SDS011;54866;53.458;14.540;2022-10-16T03:25:20;5.10;;;4.60;;
68076;SDS011;54866;53.458;14.540;2022-10-16T03:27:49;4.20;;;3.80;;
68076;SDS011;54866;53.458;14.540;2022-10-16T03:30:20;4.50;;;4.00;;
68076;SDS011;54866;53.458;14.540;2022-10-16T03:32:49;5.20;;;4.40;;
68076;SDS011;54866;53.458;14.540;2022-10-16T03:35:20;5.10;;;4.30;;
68076;SDS011;54866;53.458;14.540;2022-10-16T03:37:51;5.50;;;4.80;;
68076;SDS011;54866;53.458;14.540;2022-10-16T03:40:21;5.00;;;4.50;;
68076;SDS011;54866;53.458;14.540;2022-10-16T03:42:50;5.10;;;4.30;;
68076;SDS011;54866;53.458;14.540;2022-10-16T03:45:21;6.70;;;4.60;;
68076;SDS011;54866;53.458;14.540;2022-10-16T03:47:51;5.50;;;4.40;;
68076;SDS011;54866;53.458;14.540;2022-10-16T03:50:21;5.80;;;4.40;;
68076;SDS011;54866;53.458;14.540;2022-10-16T03:52:51;5.60;;;4.10;;
68076;SDS011;54866;53.458;14.540;2022-10-16T03:55:20;4.90;;;4.50;;
68076;SDS011;54866;53.458;14.540;2022-10-16T03:57:50;4.80;;;3.90;;
68076;SDS011;54866;53.458;14.540;2022-10-16T04:00:22;4.50;;;3.80;;
68076;SDS011;54866;53.458;14.540;2022-10-16T04:02:51;4.70;;;4.10;;
68076;SDS011;54866;53.458;14.540;2022-10-16T04:05:21;5.90;;;4.30;;
68076;SDS011;54866;53.458;14.540;2022-10-16T04:07:51;4.60;;;4.00;;
68076;SDS011;54866;53.458;14.540;2022-10-16T04:10:21;4.80;;;4.30;;
68076;SDS011;54866;53.458;14.540;2022-10-16T04:12:51;3.90;;;3.50;;
68076;SDS011;54866;53.458;14.540;2022-10-16T04:15:22;4.40;;;4.00;;
68076;SDS011;54866;53.458;14.540;2022-10-16T04:17:52;4.70;;;4.00;;
68076;SDS011;54866;53.458;14.540;2022-10-16T04:20:22;4.90;;;4.00;;
68076;SDS011;54866;53.458;14.540;2022-10-16T04:22:52;5.10;;;4.30;;
68076;SDS011;54866;53.458;14.540;2022-10-16T04:25:22;5.50;;;4.20;;
68076;SDS011;54866;53.458;14.540;2022-10-16T04:27:53;5.70;;;4.20;;
68076;SDS011;54866;53.458;14.540;2022-10-16T04:30:23;5.60;;;4.10;;
68076;SDS011;54866;53.458;14.540;2022-10-16T04:32:53;4.80;;;4.20;;
68076;SDS011;54866;53.458;14.540;2022-10-16T04:35:23;4.90;;;4.10;;
68076;SDS011;54866;53.458;14.540;2022-10-16T04:37:53;4.80;;;4.30;;
68076;SDS011;54866;53.458;14.540;2022-10-16T04:40:24;5.40;;;4.20;;
68076;SDS011;54866;53.458;14.540;2022-10-16T04:42:54;4.60;;;4.20;;
68076;SDS011;54866;53.458;14.540;2022-10-16T04:47:56;7.10;;;4.50;;
68076;SDS011;54866;53.458;14.540;2022-10-16T04:50:26;5.00;;;4.40;;
68076;SDS011;54866;53.458;14.540;2022-10-16T04:52:56;4.80;;;4.30;;
68076;SDS011;54866;53.458;14.540;2022-10-16T04:55:26;4.50;;;4.10;;
68076;SDS011;54866;53.458;14.540;2022-10-16T04:57:56;5.30;;;4.40;;
68076;SDS011;54866;53.458;14.540;2022-10-16T05:00:25;5.00;;;4.10;;
68076;SDS011;54866;53.458;14.540;2022-10-16T05:02:55;5.60;;;4.60;;
68076;SDS011;54866;53.458;14.540;2022-10-16T05:05:27;4.60;;;4.10;;
68076;SDS011;54866;53.458;14.540;2022-10-16T05:07:57;5.50;;;4.40;;
68076;SDS011;54866;53.458;14.540;2022-10-16T05:10:27;5.90;;;4.80;;
68076;SDS011;54866;53.458;14.540;2022-10-16T05:12:56;5.70;;;5.20;;
68076;SDS011;54866;53.458;14.540;2022-10-16T05:15:26;5.00;;;4.40;;
68076;SDS011;54866;53.458;14.540;2022-10-16T05:17:56;6.20;;;5.10;;
68076;SDS011;54866;53.458;14.540;2022-10-16T05:20:26;8.40;;;6.30;;
68076;SDS011;54866;53.458;14.540;2022-10-16T05:22:56;8.30;;;5.70;;
68076;SDS011;54866;53.458;14.540;2022-10-16T05:25:26;10.10;;;6.40;;
68076;SDS011;54866;53.458;14.540;2022-10-16T05:27:56;8.40;;;6.20;;
68076;SDS011;54866;53.458;14.540;2022-10-16T05:30:26;8.00;;;6.20;;
68076;SDS011;54866;53.458;14.540;2022-10-16T05:32:55;8.30;;;5.60;;
68076;SDS011;54866;53.458;14.540;2022-10-16T05:35:25;5.90;;;4.60;;
68076;SDS011;54866;53.458;14.540;2022-10-16T05:37:55;7.20;;;5.90;;
68076;SDS011;54866;53.458;14.540;2022-10-16T05:40:25;7.30;;;5.10;;
68076;SDS011;54866;53.458;14.540;2022-10-16T05:42:56;8.60;;;5.70;;
68076;SDS011;54866;53.458;14.540;2022-10-16T05:45:25;6.90;;;5.00;;
68076;SDS011;54866;53.458;14.540;2022-10-16T05:47:55;6.60;;;4.60;;
68076;SDS011;54866;53.458;14.540;2022-10-16T05:50:25;6.40;;;5.10;;
68076;SDS011;54866;53.458;14.540;2022-10-16T05:52:55;5.80;;;4.30;;
68076;SDS011;54866;53.458;14.540;2022-10-16T05:55:26;5.20;;;4.10;;
68076;SDS011;54866;53.458;14.540;2022-10-16T05:57:56;6.70;;;4.60;;
68076;SDS011;54866;53.458;14.540;2022-10-16T06:00:25;5.20;;;4.30;;
68076;SDS011;54866;53.458;14.540;2022-10-16T06:02:55;5.20;;;4.20;;
68076;SDS011;54866;53.458;14.540;2022-10-16T06:05:25;5.30;;;4.20;;
68076;SDS011;54866;53.458;14.540;2022-10-16T06:07:55;5.60;;;4.20;;
68076;SDS011;54866;53.458;14.540;2022-10-16T06:10:25;5.90;;;4.50;;
68076;SDS011;54866;53.458;14.540;2022-10-16T06:12:55;4.40;;;3.50;;
68076;SDS011;54866;53.458;14.540;2022-10-16T06:15:25;5.90;;;3.90;;
68076;SDS011;54866;53.458;14.540;2022-10-16T06:17:55;5.60;;;3.50;;
68076;SDS011;54866;53.458;14.540;2022-10-16T06:20:25;4.10;;;3.60;;
68076;SDS011;54866;53.458;14.540;2022-10-16T06:22:55;4.10;;;3.10;;
68076;SDS011;54866;53.458;14.540;2022-10-16T06:25:25;3.80;;;3.40;;
68076;SDS011;54866;53.458;14.540;2022-10-16T06:27:55;4.50;;;3.50;;
68076;SDS011;54866;53.458;14.540;2022-10-16T06:30:24;4.70;;;3.40;;
68076;SDS011;54866;53.458;14.540;2022-10-16T06:32:55;5.20;;;4.20;;
68076;SDS011;54866;53.458;14.540;2022-10-16T06:35:24;4.60;;;3.40;;
68076;SDS011;54866;53.458;14.540;2022-10-16T06:37:55;4.10;;;3.10;;
68076;SDS011;54866;53.458;14.540;2022-10-16T06:40:25;3.80;;;3.10;;
68076;SDS011;54866;53.458;14.540;2022-10-16T06:42:55;2.90;;;2.60;;
68076;SDS011;54866;53.458;14.540;2022-10-16T06:45:25;4.70;;;3.20;;
68076;SDS011;54866;53.458;14.540;2022-10-16T06:47:55;4.00;;;3.00;;
68076;SDS011;54866;53.458;14.540;2022-10-16T06:50:25;3.40;;;2.80;;
68076;SDS011;54866;53.458;14.540;2022-10-16T06:52:55;3.80;;;3.00;;
68076;SDS011;54866;53.458;14.540;2022-10-16T06:55:24;4.10;;;3.30;;
68076;SDS011;54866;53.458;14.540;2022-10-16T06:57:54;3.60;;;3.10;;
68076;SDS011;54866;53.458;14.540;2022-10-16T07:00:24;3.10;;;2.80;;
68076;SDS011;54866;53.458;14.540;2022-10-16T07:02:54;3.10;;;2.80;;
68076;SDS011;54866;53.458;14.540;2022-10-16T07:05:24;3.90;;;2.60;;
68076;SDS011;54866;53.458;14.540;2022-10-16T07:07:53;2.90;;;2.30;;
68076;SDS011;54866;53.458;14.540;2022-10-16T07:10:23;4.20;;;3.10;;
68076;SDS011;54866;53.458;14.540;2022-10-16T07:12:53;4.10;;;2.80;;
68076;SDS011;54866;53.458;14.540;2022-10-16T07:15:23;3.60;;;2.50;;
68076;SDS011;54866;53.458;14.540;2022-10-16T07:17:54;4.00;;;2.60;;
68076;SDS011;54866;53.458;14.540;2022-10-16T07:20:24;3.10;;;2.40;;
68076;SDS011;54866;53.458;14.540;2022-10-16T07:22:54;4.10;;;2.50;;
68076;SDS011;54866;53.458;14.540;2022-10-16T07:25:24;3.90;;;2.50;;
68076;SDS011;54866;53.458;14.540;2022-10-16T07:27:54;3.70;;;2.30;;
68076;SDS011;54866;53.458;14.540;2022-10-16T07:30:23;5.90;;;2.80;;
68076;SDS011;54866;53.458;14.540;2022-10-16T07:32:53;3.80;;;3.10;;
68076;SDS011;54866;53.458;14.540;2022-10-16T07:35:23;5.30;;;2.80;;
68076;SDS011;54866;53.458;14.540;2022-10-16T07:37:53;3.90;;;2.70;;
68076;SDS011;54866;53.458;14.540;2022-10-16T07:40:23;4.50;;;2.90;;
68076;SDS011;54866;53.458;14.540;2022-10-16T07:42:53;3.40;;;2.30;;
68076;SDS011;54866;53.458;14.540;2022-10-16T07:45:23;3.70;;;2.10;;
68076;SDS011;54866;53.458;14.540;2022-10-16T07:47:53;2.50;;;2.10;;
68076;SDS011;54866;53.458;14.540;2022-10-16T07:50:23;3.80;;;2.10;;
68076;SDS011;54866;53.458;14.540;2022-10-16T07:52:53;3.50;;;2.00;;
68076;SDS011;54866;53.458;14.540;2022-10-16T07:55:22;3.60;;;2.20;;
68076;SDS011;54866;53.458;14.540;2022-10-16T07:57:52;3.20;;;2.50;;
68076;SDS011;54866;53.458;14.540;2022-10-16T08:00:22;3.20;;;2.30;;
68076;SDS011;54866;53.458;14.540;2022-10-16T08:02:52;3.40;;;2.50;;
68076;SDS011;54866;53.458;14.540;2022-10-16T08:05:23;3.20;;;2.10;;
68076;SDS011;54866;53.458;14.540;2022-10-16T08:07:53;3.20;;;2.20;;
68076;SDS011;54866;53.458;14.540;2022-10-16T08:10:23;3.10;;;2.30;;
68076;SDS011;54866;53.458;14.540;2022-10-16T08:12:54;3.30;;;2.20;;
68076;SDS011;54866;53.458;14.540;2022-10-16T08:15:24;3.50;;;1.80;;
68076;SDS011;54866;53.458;14.540;2022-10-16T08:17:58;2.70;;;1.90;;
68076;SDS011;54866;53.458;14.540;2022-10-16T08:20:29;3.90;;;1.80;;
68076;SDS011;54866;53.458;14.540;2022-10-16T08:23:00;3.00;;;2.20;;
68076;SDS011;54866;53.458;14.540;2022-10-16T08:25:30;3.40;;;1.60;;
68076;SDS011;54866;53.458;14.540;2022-10-16T08:28:02;2.50;;;1.80;;
68076;SDS011;54866;53.458;14.540;2022-10-16T08:30:33;2.50;;;1.80;;
68076;SDS011;54866;53.458;14.540;2022-10-16T08:33:03;3.90;;;2.20;;
68076;SDS011;54866;53.458;14.540;2022-10-16T08:35:33;2.90;;;2.20;;
68076;SDS011;54866;53.458;14.540;2022-10-16T08:38:04;4.80;;;2.20;;
68076;SDS011;54866;53.458;14.540;2022-10-16T08:40:35;2.60;;;2.10;;
68076;SDS011;54866;53.458;14.540;2022-10-16T08:43:12;4.60;;;2.20;;
68076;SDS011;54866;53.458;14.540;2022-10-16T08:48:48;3.10;;;2.20;;
68076;SDS011;54866;53.458;14.540;2022-10-16T08:51:21;4.60;;;2.00;;
68076;SDS011;54866;53.458;14.540;2022-10-16T08:53:52;4.40;;;2.20;;
68076;SDS011;54866;53.458;14.540;2022-10-16T08:56:25;3.00;;;1.80;;
68076;SDS011;54866;53.458;14.540;2022-10-16T08:58:57;3.50;;;2.50;;
68076;SDS011;54866;53.458;14.540;2022-10-16T09:01:32;2.90;;;2.20;;
68076;SDS011;54866;53.458;14.540;2022-10-16T09:07:08;2.70;;;1.90;;
68076;SDS011;54866;53.458;14.540;2022-10-16T09:09:50;6.90;;;2.50;;
68076;SDS011;54866;53.458;14.540;2022-10-16T09:12:33;2.70;;;1.90;;
68076;SDS011;54866;53.458;14.540;2022-10-16T09:15:14;4.00;;;1.80;;
68076;SDS011;54866;53.458;14.540;2022-10-16T09:17:52;3.10;;;1.70;;
68076;SDS011;54866;53.458;14.540;2022-10-16T09:20:32;3.10;;;1.90;;
68076;SDS011;54866;53.458;14.540;2022-10-16T09:23:15;3.40;;;1.90;;
68076;SDS011;54866;53.458;14.540;2022-10-16T09:25:48;3.50;;;1.90;;
68076;SDS011;54866;53.458;14.540;2022-10-16T09:28:18;2.10;;;1.50;;
68076;SDS011;54866;53.458;14.540;2022-10-16T09:30:48;3.70;;;1.80;;
68076;SDS011;54866;53.458;14.540;2022-10-16T09:33:19;2.30;;;1.50;;
68076;SDS011;54866;53.458;14.540;2022-10-16T09:35:53;2.60;;;1.70;;
68076;SDS011;54866;53.458;14.540;2022-10-16T09:40:56;2.90;;;1.40;;
68076;SDS011;54866;53.458;14.540;2022-10-16T09:43:28;5.10;;;1.80;;
68076;SDS011;54866;53.458;14.540;2022-10-16T09:46:03;3.50;;;2.10;;
68076;SDS011;54866;53.458;14.540;2022-10-16T09:48:36;4.20;;;1.80;;
68076;SDS011;54866;53.458;14.540;2022-10-16T09:51:16;2.50;;;1.50;;
68076;SDS011;54866;53.458;14.540;2022-10-16T09:53:53;3.10;;;1.50;;
68076;SDS011;54866;53.458;14.540;2022-10-16T09:56:25;2.70;;;1.60;;
68076;SDS011;54866;53.458;14.540;2022-10-16T09:58:56;3.90;;;1.80;;
68076;SDS011;54866;53.458;14.540;2022-10-16T10:01:28;3.20;;;2.10;;
68076;SDS011;54866;53.458;14.540;2022-10-16T10:04:04;2.70;;;1.60;;
68076;SDS011;54866;53.458;14.540;2022-10-16T10:06:36;3.50;;;1.70;;
68076;SDS011;54866;53.458;14.540;2022-10-16T10:09:18;4.60;;;1.80;;
68076;SDS011;54866;53.458;14.540;2022-10-16T10:11:51;3.40;;;2.00;;
68076;SDS011;54866;53.458;14.540;2022-10-16T10:14:23;3.20;;;1.20;;
68076;SDS011;54866;53.458;14.540;2022-10-16T10:17:11;3.90;;;1.80;;
68076;SDS011;54866;53.458;14.540;2022-10-16T10:19:46;2.40;;;1.30;;
68076;SDS011;54866;53.458;14.540;2022-10-16T10:22:31;3.20;;;1.30;;
68076;SDS011;54866;53.458;14.540;2022-10-16T10:25:23;3.90;;;1.50;;
68076;SDS011;54866;53.458;14.540;2022-10-16T10:28:03;2.80;;;1.20;;
68076;SDS011;54866;53.458;14.540;2022-10-16T10:30:55;3.10;;;1.50;;
68076;SDS011;54866;53.458;14.540;2022-10-16T10:33:37;3.30;;;1.50;;
68076;SDS011;54866;53.458;14.540;2022-10-16T10:36:16;3.50;;;1.60;;
68076;SDS011;54866;53.458;14.540;2022-10-16T10:38:54;4.10;;;1.80;;
68076;SDS011;54866;53.458;14.540;2022-10-16T10:44:48;2.60;;;1.60;;
68076;SDS011;54866;53.458;14.540;2022-10-16T10:47:27;3.10;;;1.30;;
68076;SDS011;54866;53.458;14.540;2022-10-16T10:50:10;2.90;;;1.40;;
68076;SDS011;54866;53.458;14.540;2022-10-16T10:52:59;5.70;;;2.30;;
68076;SDS011;54866;53.458;14.540;2022-10-16T10:55:39;3.00;;;1.50;;
68076;SDS011;54866;53.458;14.540;2022-10-16T11:01:13;2.40;;;1.20;;
68076;SDS011;54866;53.458;14.540;2022-10-16T11:03:57;3.50;;;1.50;;
68076;SDS011;54866;53.458;14.540;2022-10-16T11:09:11;4.20;;;1.40;;
68076;SDS011;54866;53.458;14.540;2022-10-16T11:11:46;3.20;;;1.40;;
68076;SDS011;54866;53.458;14.540;2022-10-16T11:14:21;2.90;;;1.80;;
68076;SDS011;54866;53.458;14.540;2022-10-16T11:16:56;3.50;;;1.20;;
68076;SDS011;54866;53.458;14.540;2022-10-16T11:19:34;2.80;;;1.30;;
68076;SDS011;54866;53.458;14.540;2022-10-16T11:22:09;2.80;;;1.00;;
68076;SDS011;54866;53.458;14.540;2022-10-16T11:24:46;4.00;;;1.20;;
68076;SDS011;54866;53.458;14.540;2022-10-16T11:27:21;2.80;;;0.90;;
68076;SDS011;54866;53.458;14.540;2022-10-16T11:29:59;3.50;;;1.10;;
68076;SDS011;54866;53.458;14.540;2022-10-16T11:32:33;2.30;;;1.20;;
68076;SDS011;54866;53.458;14.540;2022-10-16T11:35:17;3.60;;;1.00;;
68076;SDS011;54866;53.458;14.540;2022-10-16T11:37:52;2.90;;;1.40;;
68076;SDS011;54866;53.458;14.540;2022-10-16T11:40:25;4.60;;;1.00;;
68076;SDS011;54866;53.458;14.540;2022-10-16T11:43:02;3.50;;;1.00;;
68076;SDS011;54866;53.458;14.540;2022-10-16T11:45:40;4.00;;;1.20;;
68076;SDS011;54866;53.458;14.540;2022-10-16T11:48:15;2.60;;;0.90;;
68076;SDS011;54866;53.458;14.540;2022-10-16T11:50:53;3.80;;;1.30;;
68076;SDS011;54866;53.458;14.540;2022-10-16T11:53:34;1.70;;;1.00;;
68076;SDS011;54866;53.458;14.540;2022-10-16T11:56:13;3.20;;;1.10;;
68076;SDS011;54866;53.458;14.540;2022-10-16T11:58:49;3.50;;;1.20;;
68076;SDS011;54866;53.458;14.540;2022-10-16T12:01:26;3.70;;;1.20;;
68076;SDS011;54866;53.458;14.540;2022-10-16T12:04:04;3.60;;;1.60;;
68076;SDS011;54866;53.458;14.540;2022-10-16T12:06:42;3.00;;;1.10;;
68076;SDS011;54866;53.458;14.540;2022-10-16T12:09:18;2.50;;;1.30;;
68076;SDS011;54866;53.458;14.540;2022-10-16T12:11:50;2.60;;;1.20;;
68076;SDS011;54866;53.458;14.540;2022-10-16T12:14:21;3.10;;;1.60;;
68076;SDS011;54866;53.458;14.540;2022-10-16T12:17:04;2.70;;;1.60;;
68076;SDS011;54866;53.458;14.540;2022-10-16T12:20:00;3.40;;;1.30;;
68076;SDS011;54866;53.458;14.540;2022-10-16T12:22:49;2.60;;;1.40;;
68076;SDS011;54866;53.458;14.540;2022-10-16T12:25:22;2.00;;;1.20;;
68076;SDS011;54866;53.458;14.540;2022-10-16T12:27:55;3.10;;;1.70;;
68076;SDS011;54866;53.458;14.540;2022-10-16T12:30:28;3.70;;;1.40;;
68076;SDS011;54866;53.458;14.540;2022-10-16T12:33:00;3.70;;;1.20;;
68076;SDS011;54866;53.458;14.540;2022-10-16T12:35:32;2.10;;;1.50;;
68076;SDS011;54866;53.458;14.540;2022-10-16T12:38:15;2.50;;;1.50;;
68076;SDS011;54866;53.458;14.540;2022-10-16T12:40:47;3.80;;;1.50;;
68076;SDS011;54866;53.458;14.540;2022-10-16T12:43:39;2.30;;;1.10;;
68076;SDS011;54866;53.458;14.540;2022-10-16T12:47:54;2.50;;;1.20;;
68076;SDS011;54866;53.458;14.540;2022-10-16T12:50:30;2.20;;;1.40;;
68076;SDS011;54866;53.458;14.540;2022-10-16T12:53:02;2.80;;;1.90;;
68076;SDS011;54866;53.458;14.540;2022-10-16T12:55:46;2.10;;;1.30;;
68076;SDS011;54866;53.458;14.540;2022-10-16T12:58:30;2.80;;;1.30;;
68076;SDS011;54866;53.458;14.540;2022-10-16T13:01:16;2.70;;;1.40;;
68076;SDS011;54866;53.458;14.540;2022-10-16T13:03:57;2.40;;;1.50;;
68076;SDS011;54866;53.458;14.540;2022-10-16T13:06:46;2.30;;;1.50;;
68076;SDS011;54866;53.458;14.540;2022-10-16T13:09:29;4.10;;;1.40;;
68076;SDS011;54866;53.458;14.540;2022-10-16T13:12:21;3.00;;;1.40;;
68076;SDS011;54866;53.458;14.540;2022-10-16T13:15:19;3.30;;;1.40;;
68076;SDS011;54866;53.458;14.540;2022-10-16T13:17:58;2.90;;;1.60;;
68076;SDS011;54866;53.458;14.540;2022-10-16T13:20:34;2.20;;;1.40;;
68076;SDS011;54866;53.458;14.540;2022-10-16T13:23:12;1.80;;;1.30;;
68076;SDS011;54866;53.458;14.540;2022-10-16T13:25:55;3.10;;;1.30;;
68076;SDS011;54866;53.458;14.540;2022-10-16T13:28:37;3.30;;;1.40;;
68076;SDS011;54866;53.458;14.540;2022-10-16T13:31:11;2.80;;;1.00;;
68076;SDS011;54866;53.458;14.540;2022-10-16T13:33:47;2.20;;;1.40;;
68076;SDS011;54866;53.458;14.540;2022-10-16T13:36:22;3.40;;;1.40;;
68076;SDS011;54866;53.458;14.540;2022-10-16T13:39:09;1.80;;;1.30;;
68076;SDS011;54866;53.458;14.540;2022-10-16T13:41:40;2.80;;;1.40;;
68076;SDS011;54866;53.458;14.540;2022-10-16T13:44:14;2.50;;;1.40;;
68076;SDS011;54866;53.458;14.540;2022-10-16T13:46:47;2.40;;;1.40;;
68076;SDS011;54866;53.458;14.540;2022-10-16T13:49:27;3.20;;;2.20;;
68076;SDS011;54866;53.458;14.540;2022-10-16T13:51:58;2.40;;;1.40;;
68076;SDS011;54866;53.458;14.540;2022-10-16T13:54:28;3.40;;;1.20;;
68076;SDS011;54866;53.458;14.540;2022-10-16T13:57:05;3.50;;;2.30;;
68076;SDS011;54866;53.458;14.540;2022-10-16T13:59:36;2.60;;;1.40;;
68076;SDS011;54866;53.458;14.540;2022-10-16T14:02:08;2.70;;;1.80;;
68076;SDS011;54866;53.458;14.540;2022-10-16T14:04:50;1.70;;;1.00;;
68076;SDS011;54866;53.458;14.540;2022-10-16T14:07:23;1.80;;;1.10;;
68076;SDS011;54866;53.458;14.540;2022-10-16T14:09:54;2.20;;;1.10;;
68076;SDS011;54866;53.458;14.540;2022-10-16T14:12:28;1.70;;;0.80;;
68076;SDS011;54866;53.458;14.540;2022-10-16T14:14:58;2.20;;;0.90;;
68076;SDS011;54866;53.458;14.540;2022-10-16T14:17:29;2.20;;;1.00;;
68076;SDS011;54866;53.458;14.540;2022-10-16T14:20:03;1.60;;;0.70;;
68076;SDS011;54866;53.458;14.540;2022-10-16T14:22:41;4.20;;;1.20;;
68076;SDS011;54866;53.458;14.540;2022-10-16T14:25:23;2.60;;;1.00;;
68076;SDS011;54866;53.458;14.540;2022-10-16T14:27:58;2.10;;;1.30;;
68076;SDS011;54866;53.458;14.540;2022-10-16T14:30:30;2.70;;;1.10;;
68076;SDS011;54866;53.458;14.540;2022-10-16T14:33:02;1.30;;;0.80;;
68076;SDS011;54866;53.458;14.540;2022-10-16T14:35:34;2.00;;;1.20;;
68076;SDS011;54866;53.458;14.540;2022-10-16T14:38:15;2.00;;;0.70;;
68076;SDS011;54866;53.458;14.540;2022-10-16T14:40:48;2.10;;;0.80;;
68076;SDS011;54866;53.458;14.540;2022-10-16T14:43:20;1.40;;;0.70;;
68076;SDS011;54866;53.458;14.540;2022-10-16T14:45:54;2.20;;;0.90;;
68076;SDS011;54866;53.458;14.540;2022-10-16T14:48:25;2.60;;;1.10;;
68076;SDS011;54866;53.458;14.540;2022-10-16T14:50:55;2.20;;;1.20;;
68076;SDS011;54866;53.458;14.540;2022-10-16T14:53:25;2.40;;;1.10;;
68076;SDS011;54866;53.458;14.540;2022-10-16T14:55:55;1.90;;;1.00;;
68076;SDS011;54866;53.458;14.540;2022-10-16T14:58:25;2.90;;;1.10;;
68076;SDS011;54866;53.458;14.540;2022-10-16T15:00:55;4.10;;;1.20;;
68076;SDS011;54866;53.458;14.540;2022-10-16T15:03:25;2.40;;;1.00;;
68076;SDS011;54866;53.458;14.540;2022-10-16T15:05:54;2.30;;;1.10;;
68076;SDS011;54866;53.458;14.540;2022-10-16T15:08:24;2.20;;;0.70;;
68076;SDS011;54866;53.458;14.540;2022-10-16T15:10:54;2.70;;;0.90;;
68076;SDS011;54866;53.458;14.540;2022-10-16T15:13:24;2.00;;;0.90;;
68076;SDS011;54866;53.458;14.540;2022-10-16T15:15:54;1.80;;;1.00;;
68076;SDS011;54866;53.458;14.540;2022-10-16T15:18:25;3.70;;;1.20;;
68076;SDS011;54866;53.458;14.540;2022-10-16T15:20:55;2.60;;;1.10;;
68076;SDS011;54866;53.458;14.540;2022-10-16T15:23:25;2.20;;;1.10;;
68076;SDS011;54866;53.458;14.540;2022-10-16T15:25:55;2.40;;;1.20;;
68076;SDS011;54866;53.458;14.540;2022-10-16T15:28:26;1.80;;;1.20;;
68076;SDS011;54866;53.458;14.540;2022-10-16T15:30:56;2.00;;;1.00;;
68076;SDS011;54866;53.458;14.540;2022-10-16T15:33:26;2.30;;;1.20;;
68076;SDS011;54866;53.458;14.540;2022-10-16T15:36:00;2.10;;;1.30;;
68076;SDS011;54866;53.458;14.540;2022-10-16T15:38:30;3.80;;;1.20;;